sensor_id;sensor_type;location;lat;lon;timestamp;pressure;altitude;pressure_sealevel;temperature;humidity
51067;BME280;37112;45.892;-123.962;2022-12-29T00:01:31;100816.35;;;9.78;92.58
51067;BME280;37112;45.892;-123.962;2022-12-29T00:03:47;100815.55;;;9.74;92.66
51067;BME280;37112;45.892;-123.962;2022-12-29T00:06:01;100811.86;;;9.70;92.46
51067;BME280;37112;45.892;-123.962;2022-12-29T00:08:16;100807.34;;;9.67;92.66
51067;BME280;37112;45.892;-123.962;2022-12-29T00:10:30;100803.02;;;9.65;92.73
51067;BME280;37112;45.892;-123.962;2022-12-29T00:12:48;100799.65;;;9.62;92.50
51067;BME280;37112;45.892;-123.962;2022-12-29T00:15:21;100799.41;;;9.57;92.46
51067;BME280;37112;45.892;-123.962;2022-12-29T00:17:51;100802.09;;;9.54;92.48
51067;BME280;37112;45.892;-123.962;2022-12-29T00:20:05;100800.70;;;9.51;92.49
51067;BME280;37112;45.892;-123.962;2022-12-29T00:22:35;100800.06;;;9.50;92.68
51067;BME280;37112;45.892;-123.962;2022-12-29T00:25:07;100802.68;;;9.47;92.66
51067;BME280;37112;45.892;-123.962;2022-12-29T00:27:38;100806.05;;;9.44;92.57
51067;BME280;37112;45.892;-123.962;2022-12-29T00:30:17;100802.14;;;9.42;92.66
51067;BME280;37112;45.892;-123.962;2022-12-29T00:32:48;100804.39;;;9.40;92.63
51067;BME280;37112;45.892;-123.962;2022-12-29T00:35:23;100801.60;;;9.39;92.81
51067;BME280;37112;45.892;-123.962;2022-12-29T00:37:40;100794.14;;;9.36;92.54
51067;BME280;37112;45.892;-123.962;2022-12-29T00:40:12;100798.66;;;9.32;92.41
51067;BME280;37112;45.892;-123.962;2022-12-29T00:42:49;100797.67;;;9.28;92.36
51067;BME280;37112;45.892;-123.962;2022-12-29T00:45:20;100799.40;;;9.26;92.56
51067;BME280;37112;45.892;-123.962;2022-12-29T00:47:38;100802.39;;;9.23;92.37
51067;BME280;37112;45.892;-123.962;2022-12-29T00:49:56;100806.30;;;9.20;92.28
51067;BME280;37112;45.892;-123.962;2022-12-29T00:52:11;100806.84;;;9.16;92.23
51067;BME280;37112;45.892;-123.962;2022-12-29T00:54:27;100809.16;;;9.14;92.06
51067;BME280;37112;45.892;-123.962;2022-12-29T00:56:48;100806.68;;;9.08;91.92
51067;BME280;37112;45.892;-123.962;2022-12-29T00:59:05;100799.13;;;9.04;91.92
51067;BME280;37112;45.892;-123.962;2022-12-29T01:01:19;100800.50;;;9.02;91.99
51067;BME280;37112;45.892;-123.962;2022-12-29T01:03:34;100801.70;;;8.99;91.98
51067;BME280;37112;45.892;-123.962;2022-12-29T01:05:50;100799.89;;;8.97;91.84
51067;BME280;37112;45.892;-123.962;2022-12-29T01:08:05;100799.71;;;8.94;91.86
51067;BME280;37112;45.892;-123.962;2022-12-29T01:10:19;100794.23;;;8.91;91.72
51067;BME280;37112;45.892;-123.962;2022-12-29T01:12:35;100795.73;;;8.86;91.69
51067;BME280;37112;45.892;-123.962;2022-12-29T01:14:55;100795.77;;;8.83;91.55
51067;BME280;37112;45.892;-123.962;2022-12-29T01:17:12;100794.33;;;8.81;91.46
51067;BME280;37112;45.892;-123.962;2022-12-29T01:19:27;100795.43;;;8.76;91.29
51067;BME280;37112;45.892;-123.962;2022-12-29T01:21:40;100790.58;;;8.72;91.14
51067;BME280;37112;45.892;-123.962;2022-12-29T01:23:54;100793.30;;;8.68;91.10
51067;BME280;37112;45.892;-123.962;2022-12-29T01:26:13;100788.49;;;8.65;91.29
51067;BME280;37112;45.892;-123.962;2022-12-29T01:28:27;100789.73;;;8.62;91.26
51067;BME280;37112;45.892;-123.962;2022-12-29T01:30:41;100786.11;;;8.60;91.20
51067;BME280;37112;45.892;-123.962;2022-12-29T01:32:55;100782.72;;;8.58;91.33
51067;BME280;37112;45.892;-123.962;2022-12-29T01:35:10;100781.34;;;8.57;91.39
51067;BME280;37112;45.892;-123.962;2022-12-29T01:37:23;100775.30;;;8.55;91.07
51067;BME280;37112;45.892;-123.962;2022-12-29T01:39:38;100765.67;;;8.50;90.92
51067;BME280;37112;45.892;-123.962;2022-12-29T01:41:52;100762.70;;;8.46;90.90
51067;BME280;37112;45.892;-123.962;2022-12-29T01:44:46;100756.33;;;8.43;90.94
51067;BME280;37112;45.892;-123.962;2022-12-29T01:47:00;100745.88;;;8.33;90.53
51067;BME280;37112;45.892;-123.962;2022-12-29T01:49:18;100743.73;;;8.28;90.45
51067;BME280;37112;45.892;-123.962;2022-12-29T01:51:33;100738.23;;;8.22;90.40
51067;BME280;37112;45.892;-123.962;2022-12-29T01:53:48;100737.30;;;8.13;90.24
51067;BME280;37112;45.892;-123.962;2022-12-29T01:56:05;100739.69;;;8.05;90.36
51067;BME280;37112;45.892;-123.962;2022-12-29T01:58:22;100738.74;;;7.97;90.14
51067;BME280;37112;45.892;-123.962;2022-12-29T02:00:38;100734.23;;;7.90;90.35
51067;BME280;37112;45.892;-123.962;2022-12-29T02:02:54;100736.80;;;7.85;90.54
51067;BME280;37112;45.892;-123.962;2022-12-29T02:05:13;100734.55;;;7.84;90.96
51067;BME280;37112;45.892;-123.962;2022-12-29T02:07:30;100739.31;;;7.81;90.91
51067;BME280;37112;45.892;-123.962;2022-12-29T02:09:45;100739.65;;;7.78;91.00
51067;BME280;37112;45.892;-123.962;2022-12-29T02:12:00;100742.02;;;7.77;91.21
51067;BME280;37112;45.892;-123.962;2022-12-29T02:14:15;100738.06;;;7.75;91.12
51067;BME280;37112;45.892;-123.962;2022-12-29T02:16:40;100738.19;;;7.73;91.08
51067;BME280;37112;45.892;-123.962;2022-12-29T02:19:18;100733.81;;;7.72;91.35
51067;BME280;37112;45.892;-123.962;2022-12-29T02:21:51;100736.77;;;7.70;91.19
51067;BME280;37112;45.892;-123.962;2022-12-29T02:24:30;100737.80;;;7.67;91.29
51067;BME280;37112;45.892;-123.962;2022-12-29T02:27:04;100734.52;;;7.66;91.46
51067;BME280;37112;45.892;-123.962;2022-12-29T02:29:42;100739.08;;;7.63;91.41
51067;BME280;37112;45.892;-123.962;2022-12-29T02:32:05;100739.70;;;7.61;91.56
51067;BME280;37112;45.892;-123.962;2022-12-29T02:34:26;100735.10;;;7.61;91.97
51067;BME280;37112;45.892;-123.962;2022-12-29T02:36:52;100736.54;;;7.61;91.84
51067;BME280;37112;45.892;-123.962;2022-12-29T02:39:15;100733.07;;;7.60;91.93
51067;BME280;37112;45.892;-123.962;2022-12-29T02:41:37;100730.88;;;7.58;91.85
51067;BME280;37112;45.892;-123.962;2022-12-29T02:43:58;100732.23;;;7.59;92.27
51067;BME280;37112;45.892;-123.962;2022-12-29T02:46:17;100735.72;;;7.60;92.43
51067;BME280;37112;45.892;-123.962;2022-12-29T02:48:36;100735.20;;;7.60;92.37
51067;BME280;37112;45.892;-123.962;2022-12-29T02:50:56;100741.27;;;7.59;92.33
51067;BME280;37112;45.892;-123.962;2022-12-29T02:53:14;100739.16;;;7.59;92.56
51067;BME280;37112;45.892;-123.962;2022-12-29T02:55:52;100736.58;;;7.60;93.00
51067;BME280;37112;45.892;-123.962;2022-12-29T02:58:19;100732.76;;;7.63;93.17
51067;BME280;37112;45.892;-123.962;2022-12-29T03:00:33;100732.27;;;7.65;93.27
51067;BME280;37112;45.892;-123.962;2022-12-29T03:03:13;100732.85;;;7.67;93.40
51067;BME280;37112;45.892;-123.962;2022-12-29T03:08:15;100728.39;;;7.77;94.41
51067;BME280;37112;45.892;-123.962;2022-12-29T03:10:41;100726.94;;;7.84;94.70
51067;BME280;37112;45.892;-123.962;2022-12-29T03:13:04;100726.75;;;7.91;94.85
51067;BME280;37112;45.892;-123.962;2022-12-29T03:15:43;100718.34;;;7.96;94.65
51067;BME280;37112;45.892;-123.962;2022-12-29T03:18:19;100712.09;;;8.00;94.69
51067;BME280;37112;45.892;-123.962;2022-12-29T03:20:39;100710.14;;;8.03;94.74
51067;BME280;37112;45.892;-123.962;2022-12-29T03:23:00;100711.94;;;8.08;94.71
51067;BME280;37112;45.892;-123.962;2022-12-29T03:25:18;100710.16;;;8.12;94.75
51067;BME280;37112;45.892;-123.962;2022-12-29T03:27:36;100705.20;;;8.15;94.53
51067;BME280;37112;45.892;-123.962;2022-12-29T03:29:54;100708.81;;;8.17;94.53
51067;BME280;37112;45.892;-123.962;2022-12-29T03:32:10;100704.11;;;8.19;94.36
51067;BME280;37112;45.892;-123.962;2022-12-29T03:34:28;100701.33;;;8.21;94.44
51067;BME280;37112;45.892;-123.962;2022-12-29T03:36:47;100695.58;;;8.22;94.34
51067;BME280;37112;45.892;-123.962;2022-12-29T03:39:05;100697.38;;;8.25;94.28
51067;BME280;37112;45.892;-123.962;2022-12-29T03:41:26;100699.35;;;8.27;94.33
51067;BME280;37112;45.892;-123.962;2022-12-29T03:43:44;100700.63;;;8.30;94.30
51067;BME280;37112;45.892;-123.962;2022-12-29T03:45:58;100695.86;;;8.32;94.28
51067;BME280;37112;45.892;-123.962;2022-12-29T03:48:11;100693.61;;;8.35;94.42
51067;BME280;37112;45.892;-123.962;2022-12-29T03:50:26;100696.20;;;8.40;94.46
51067;BME280;37112;45.892;-123.962;2022-12-29T03:52:40;100694.59;;;8.43;94.56
51067;BME280;37112;45.892;-123.962;2022-12-29T03:54:54;100686.41;;;8.47;94.46
51067;BME280;37112;45.892;-123.962;2022-12-29T03:57:08;100688.51;;;8.50;94.50
51067;BME280;37112;45.892;-123.962;2022-12-29T03:59:43;100687.20;;;8.54;94.38
51067;BME280;37112;45.892;-123.962;2022-12-29T04:01:57;100682.30;;;8.56;94.41
51067;BME280;37112;45.892;-123.962;2022-12-29T04:04:11;100684.60;;;8.59;94.42
51067;BME280;37112;45.892;-123.962;2022-12-29T04:06:26;100682.15;;;8.61;94.37
51067;BME280;37112;45.892;-123.962;2022-12-29T04:08:44;100681.52;;;8.63;94.24
51067;BME280;37112;45.892;-123.962;2022-12-29T04:10:58;100673.83;;;8.64;94.24
51067;BME280;37112;45.892;-123.962;2022-12-29T04:13:11;100669.04;;;8.65;93.95
51067;BME280;37112;45.892;-123.962;2022-12-29T04:15:27;100668.14;;;8.65;94.05
51067;BME280;37112;45.892;-123.962;2022-12-29T04:17:41;100665.89;;;8.68;93.90
51067;BME280;37112;45.892;-123.962;2022-12-29T04:19:55;100661.57;;;8.68;93.85
51067;BME280;37112;45.892;-123.962;2022-12-29T04:22:29;100650.85;;;8.70;93.78
51067;BME280;37112;45.892;-123.962;2022-12-29T04:24:44;100650.94;;;8.71;93.92
51067;BME280;37112;45.892;-123.962;2022-12-29T04:26:57;100648.69;;;8.73;93.82
51067;BME280;37112;45.892;-123.962;2022-12-29T04:29:31;100641.84;;;8.75;93.79
51067;BME280;37112;45.892;-123.962;2022-12-29T04:32:01;100641.01;;;8.77;93.76
51067;BME280;37112;45.892;-123.962;2022-12-29T04:34:19;100643.42;;;8.78;93.71
51067;BME280;37112;45.892;-123.962;2022-12-29T04:36:32;100642.44;;;8.80;93.66
51067;BME280;37112;45.892;-123.962;2022-12-29T04:38:46;100641.45;;;8.82;93.72
51067;BME280;37112;45.892;-123.962;2022-12-29T04:41:01;100639.07;;;8.83;93.64
51067;BME280;37112;45.892;-123.962;2022-12-29T04:43:17;100630.14;;;8.84;93.52
51067;BME280;37112;45.892;-123.962;2022-12-29T04:46:16;100629.92;;;8.85;93.50
51067;BME280;37112;45.892;-123.962;2022-12-29T04:48:53;100632.54;;;8.85;93.54
51067;BME280;37112;45.892;-123.962;2022-12-29T04:51:29;100628.23;;;8.86;93.63
51067;BME280;37112;45.892;-123.962;2022-12-29T04:53:43;100625.38;;;8.87;93.62
51067;BME280;37112;45.892;-123.962;2022-12-29T04:55:57;100622.36;;;8.87;93.61
51067;BME280;37112;45.892;-123.962;2022-12-29T04:58:11;100625.04;;;8.86;93.48
51067;BME280;37112;45.892;-123.962;2022-12-29T05:00:31;100623.79;;;8.86;93.43
51067;BME280;37112;45.892;-123.962;2022-12-29T05:02:47;100619.94;;;8.86;93.29
51067;BME280;37112;45.892;-123.962;2022-12-29T05:05:02;100618.48;;;8.86;93.44
51067;BME280;37112;45.892;-123.962;2022-12-29T05:07:20;100613.52;;;8.86;93.37
51067;BME280;37112;45.892;-123.962;2022-12-29T05:09:35;100620.92;;;8.87;93.37
51067;BME280;37112;45.892;-123.962;2022-12-29T05:11:49;100614.45;;;8.89;93.43
51067;BME280;37112;45.892;-123.962;2022-12-29T05:14:02;100613.39;;;8.89;93.39
51067;BME280;37112;45.892;-123.962;2022-12-29T05:16:17;100609.98;;;8.90;93.32
51067;BME280;37112;45.892;-123.962;2022-12-29T05:18:31;100607.62;;;8.90;93.32
51067;BME280;37112;45.892;-123.962;2022-12-29T05:20:46;100605.59;;;8.92;93.37
51067;BME280;37112;45.892;-123.962;2022-12-29T05:23:02;100607.11;;;8.93;93.23
51067;BME280;37112;45.892;-123.962;2022-12-29T05:25:16;100607.74;;;8.94;93.30
51067;BME280;37112;45.892;-123.962;2022-12-29T05:27:36;100603.61;;;8.95;93.09
51067;BME280;37112;45.892;-123.962;2022-12-29T05:30:16;100599.40;;;8.94;92.89
51067;BME280;37112;45.892;-123.962;2022-12-29T05:32:30;100591.55;;;8.92;92.78
51067;BME280;37112;45.892;-123.962;2022-12-29T05:34:44;100592.91;;;8.90;92.50
51067;BME280;37112;45.892;-123.962;2022-12-29T05:36:59;100587.81;;;8.90;92.39
51067;BME280;37112;45.892;-123.962;2022-12-29T05:39:14;100588.98;;;8.88;92.29
51067;BME280;37112;45.892;-123.962;2022-12-29T05:41:33;100589.38;;;8.88;91.65
51067;BME280;37112;45.892;-123.962;2022-12-29T05:44:16;100584.63;;;8.87;91.72
51067;BME280;37112;45.892;-123.962;2022-12-29T05:46:52;100586.55;;;8.88;91.67
51067;BME280;37112;45.892;-123.962;2022-12-29T05:49:17;100578.04;;;8.88;91.64
51067;BME280;37112;45.892;-123.962;2022-12-29T05:51:47;100577.25;;;8.89;91.59
51067;BME280;37112;45.892;-123.962;2022-12-29T05:54:01;100573.81;;;8.90;91.42
51067;BME280;37112;45.892;-123.962;2022-12-29T05:56:15;100574.83;;;8.91;91.27
51067;BME280;37112;45.892;-123.962;2022-12-29T05:58:34;100567.73;;;8.91;91.23
51067;BME280;37112;45.892;-123.962;2022-12-29T06:00:48;100565.52;;;8.92;91.06
51067;BME280;37112;45.892;-123.962;2022-12-29T06:03:01;100562.60;;;8.94;91.07
51067;BME280;37112;45.892;-123.962;2022-12-29T06:05:15;100557.77;;;8.94;90.91
51067;BME280;37112;45.892;-123.962;2022-12-29T06:07:29;100552.09;;;8.95;90.69
51067;BME280;37112;45.892;-123.962;2022-12-29T06:09:45;100550.83;;;8.96;90.60
51067;BME280;37112;45.892;-123.962;2022-12-29T06:11:59;100544.88;;;8.97;90.43
51067;BME280;37112;45.892;-123.962;2022-12-29T06:14:13;100537.84;;;8.97;89.83
51067;BME280;37112;45.892;-123.962;2022-12-29T06:16:26;100535.88;;;8.97;90.04
51067;BME280;37112;45.892;-123.962;2022-12-29T06:18:42;100531.74;;;8.97;89.52
51067;BME280;37112;45.892;-123.962;2022-12-29T06:20:58;100531.54;;;8.98;89.43
51067;BME280;37112;45.892;-123.962;2022-12-29T06:23:12;100521.16;;;9.00;89.36
51067;BME280;37112;45.892;-123.962;2022-12-29T06:25:26;100516.81;;;9.01;88.87
51067;BME280;37112;45.892;-123.962;2022-12-29T06:27:42;100511.95;;;9.02;88.85
51067;BME280;37112;45.892;-123.962;2022-12-29T06:29:57;100510.46;;;9.03;88.82
51067;BME280;37112;45.892;-123.962;2022-12-29T06:32:11;100503.80;;;9.05;88.74
51067;BME280;37112;45.892;-123.962;2022-12-29T06:34:30;100495.93;;;9.06;88.51
51067;BME280;37112;45.892;-123.962;2022-12-29T06:36:44;100498.55;;;9.07;88.44
51067;BME280;37112;45.892;-123.962;2022-12-29T06:38:58;100495.70;;;9.07;88.12
51067;BME280;37112;45.892;-123.962;2022-12-29T06:41:11;100492.73;;;9.07;87.69
51067;BME280;37112;45.892;-123.962;2022-12-29T06:43:44;100492.91;;;9.06;87.70
51067;BME280;37112;45.892;-123.962;2022-12-29T06:46:33;100485.09;;;9.07;87.63
51067;BME280;37112;45.892;-123.962;2022-12-29T06:48:47;100487.95;;;9.07;87.49
51067;BME280;37112;45.892;-123.962;2022-12-29T06:51:00;100487.63;;;9.06;87.37
51067;BME280;37112;45.892;-123.962;2022-12-29T06:53:13;100487.54;;;9.07;87.22
51067;BME280;37112;45.892;-123.962;2022-12-29T06:55:27;100481.36;;;9.07;85.98
51067;BME280;37112;45.892;-123.962;2022-12-29T06:57:40;100481.05;;;9.09;86.43
51067;BME280;37112;45.892;-123.962;2022-12-29T06:59:54;100478.67;;;9.10;85.96
51067;BME280;37112;45.892;-123.962;2022-12-29T07:02:08;100477.59;;;9.13;86.39
51067;BME280;37112;45.892;-123.962;2022-12-29T07:04:25;100474.27;;;9.15;85.98
51067;BME280;37112;45.892;-123.962;2022-12-29T07:06:39;100469.95;;;9.16;85.77
51067;BME280;37112;45.892;-123.962;2022-12-29T07:08:53;100474.84;;;9.17;85.87
51067;BME280;37112;45.892;-123.962;2022-12-29T07:11:08;100472.14;;;9.18;85.87
51067;BME280;37112;45.892;-123.962;2022-12-29T07:13:22;100474.60;;;9.18;85.49
51067;BME280;37112;45.892;-123.962;2022-12-29T07:15:36;100472.61;;;9.19;85.39
51067;BME280;37112;45.892;-123.962;2022-12-29T07:17:50;100468.75;;;9.21;85.46
51067;BME280;37112;45.892;-123.962;2022-12-29T07:20:04;100469.88;;;9.23;85.28
51067;BME280;37112;45.892;-123.962;2022-12-29T07:22:18;100464.08;;;9.25;85.30
51067;BME280;37112;45.892;-123.962;2022-12-29T07:24:32;100460.09;;;9.27;85.27
51067;BME280;37112;45.892;-123.962;2022-12-29T07:26:46;100465.55;;;9.27;84.94
51067;BME280;37112;45.892;-123.962;2022-12-29T07:29:01;100463.19;;;9.28;84.81
51067;BME280;37112;45.892;-123.962;2022-12-29T07:31:18;100459.31;;;9.30;84.81
51067;BME280;37112;45.892;-123.962;2022-12-29T07:33:33;100453.38;;;9.31;84.05
51067;BME280;37112;45.892;-123.962;2022-12-29T07:35:46;100456.02;;;9.34;84.33
51067;BME280;37112;45.892;-123.962;2022-12-29T07:38:00;100457.40;;;9.37;84.29
51067;BME280;37112;45.892;-123.962;2022-12-29T07:40:15;100464.29;;;9.40;84.13
51067;BME280;37112;45.892;-123.962;2022-12-29T07:42:29;100455.34;;;9.41;83.97
51067;BME280;37112;45.892;-123.962;2022-12-29T07:44:42;100458.09;;;9.43;83.49
51067;BME280;37112;45.892;-123.962;2022-12-29T07:47:15;100454.66;;;9.44;83.20
51067;BME280;37112;45.892;-123.962;2022-12-29T07:49:29;100458.34;;;9.44;82.93
51067;BME280;37112;45.892;-123.962;2022-12-29T07:51:42;100454.95;;;9.44;82.74
51067;BME280;37112;45.892;-123.962;2022-12-29T07:53:56;100453.34;;;9.45;82.73
51067;BME280;37112;45.892;-123.962;2022-12-29T07:56:11;100453.63;;;9.46;82.73
51067;BME280;37112;45.892;-123.962;2022-12-29T07:58:25;100446.70;;;9.46;82.54
51067;BME280;37112;45.892;-123.962;2022-12-29T08:00:40;100441.75;;;9.46;82.36
51067;BME280;37112;45.892;-123.962;2022-12-29T08:02:53;100436.30;;;9.45;81.92
51067;BME280;37112;45.892;-123.962;2022-12-29T08:05:08;100435.60;;;9.45;81.90
51067;BME280;37112;45.892;-123.962;2022-12-29T08:07:21;100433.69;;;9.44;81.91
51067;BME280;37112;45.892;-123.962;2022-12-29T08:09:35;100435.48;;;9.44;81.57
51067;BME280;37112;45.892;-123.962;2022-12-29T08:11:49;100426.87;;;9.43;81.50
51067;BME280;37112;45.892;-123.962;2022-12-29T08:14:03;100424.34;;;9.44;81.58
51067;BME280;37112;45.892;-123.962;2022-12-29T08:16:17;100423.13;;;9.44;81.37
51067;BME280;37112;45.892;-123.962;2022-12-29T08:18:30;100417.58;;;9.44;81.36
51067;BME280;37112;45.892;-123.962;2022-12-29T08:20:44;100413.10;;;9.45;81.22
51067;BME280;37112;45.892;-123.962;2022-12-29T08:23:04;100408.48;;;9.45;80.85
51067;BME280;37112;45.892;-123.962;2022-12-29T08:25:18;100407.96;;;9.45;81.00
51067;BME280;37112;45.892;-123.962;2022-12-29T08:27:32;100402.95;;;9.45;80.93
51067;BME280;37112;45.892;-123.962;2022-12-29T08:29:46;100401.37;;;9.46;80.72
51067;BME280;37112;45.892;-123.962;2022-12-29T08:32:00;100402.06;;;9.45;80.66
51067;BME280;37112;45.892;-123.962;2022-12-29T08:34:14;100400.88;;;9.45;80.60
51067;BME280;37112;45.892;-123.962;2022-12-29T08:36:28;100400.30;;;9.46;80.56
51067;BME280;37112;45.892;-123.962;2022-12-29T08:38:42;100398.13;;;9.46;80.44
51067;BME280;37112;45.892;-123.962;2022-12-29T08:40:56;100396.68;;;9.46;80.30
51067;BME280;37112;45.892;-123.962;2022-12-29T08:43:10;100398.15;;;9.46;80.24
51067;BME280;37112;45.892;-123.962;2022-12-29T08:45:27;100398.85;;;9.46;79.89
51067;BME280;37112;45.892;-123.962;2022-12-29T08:47:41;100391.17;;;9.44;79.13
51067;BME280;37112;45.892;-123.962;2022-12-29T08:49:54;100394.24;;;9.44;79.75
51067;BME280;37112;45.892;-123.962;2022-12-29T08:52:08;100394.41;;;9.44;79.81
51067;BME280;37112;45.892;-123.962;2022-12-29T08:54:21;100388.61;;;9.43;79.74
51067;BME280;37112;45.892;-123.962;2022-12-29T08:56:35;100391.29;;;9.43;79.78
51067;BME280;37112;45.892;-123.962;2022-12-29T08:58:49;100389.36;;;9.42;79.68
51067;BME280;37112;45.892;-123.962;2022-12-29T09:01:04;100387.96;;;9.42;79.70
51067;BME280;37112;45.892;-123.962;2022-12-29T09:03:19;100386.74;;;9.42;79.46
51067;BME280;37112;45.892;-123.962;2022-12-29T09:05:53;100384.71;;;9.40;79.39
51067;BME280;37112;45.892;-123.962;2022-12-29T09:08:07;100382.83;;;9.39;79.51
51067;BME280;37112;45.892;-123.962;2022-12-29T09:10:21;100380.38;;;9.39;79.56
51067;BME280;37112;45.892;-123.962;2022-12-29T09:12:35;100378.30;;;9.38;79.41
51067;BME280;37112;45.892;-123.962;2022-12-29T09:14:50;100374.27;;;9.37;79.27
51067;BME280;37112;45.892;-123.962;2022-12-29T09:17:04;100371.30;;;9.37;79.31
51067;BME280;37112;45.892;-123.962;2022-12-29T09:19:35;100368.59;;;9.35;79.25
51067;BME280;37112;45.892;-123.962;2022-12-29T09:21:48;100366.20;;;9.34;79.20
51067;BME280;37112;45.892;-123.962;2022-12-29T09:24:02;100365.33;;;9.31;79.15
51067;BME280;37112;45.892;-123.962;2022-12-29T09:26:16;100363.52;;;9.29;79.36
51067;BME280;37112;45.892;-123.962;2022-12-29T09:28:30;100360.78;;;9.28;78.89
51067;BME280;37112;45.892;-123.962;2022-12-29T09:30:43;100359.79;;;9.27;78.99
51067;BME280;37112;45.892;-123.962;2022-12-29T09:32:57;100357.38;;;9.25;78.90
51067;BME280;37112;45.892;-123.962;2022-12-29T09:35:10;100355.82;;;9.25;78.96
51067;BME280;37112;45.892;-123.962;2022-12-29T09:37:24;100358.66;;;9.25;79.20
51067;BME280;37112;45.892;-123.962;2022-12-29T09:39:37;100353.56;;;9.24;79.08
51067;BME280;37112;45.892;-123.962;2022-12-29T09:41:57;100348.31;;;9.23;79.10
51067;BME280;37112;45.892;-123.962;2022-12-29T09:44:20;100351.35;;;9.23;79.15
51067;BME280;37112;45.892;-123.962;2022-12-29T09:46:38;100350.02;;;9.22;79.00
51067;BME280;37112;45.892;-123.962;2022-12-29T09:49:04;100346.70;;;9.21;79.18
51067;BME280;37112;45.892;-123.962;2022-12-29T09:51:25;100345.17;;;9.20;79.10
51067;BME280;37112;45.892;-123.962;2022-12-29T09:53:42;100349.11;;;9.19;79.23
51067;BME280;37112;45.892;-123.962;2022-12-29T09:55:59;100350.27;;;9.18;79.30
51067;BME280;37112;45.892;-123.962;2022-12-29T09:58:17;100348.77;;;9.16;79.27
51067;BME280;37112;45.892;-123.962;2022-12-29T10:00:40;100349.41;;;9.15;79.50
51067;BME280;37112;45.892;-123.962;2022-12-29T10:03:10;100346.42;;;9.12;79.58
51067;BME280;37112;45.892;-123.962;2022-12-29T10:05:38;100338.84;;;9.08;79.50
51067;BME280;37112;45.892;-123.962;2022-12-29T10:07:59;100338.90;;;9.05;79.76
51067;BME280;37112;45.892;-123.962;2022-12-29T10:10:26;100346.25;;;9.01;79.74
51067;BME280;37112;45.892;-123.962;2022-12-29T10:12:55;100340.69;;;8.97;79.98
51067;BME280;37112;45.892;-123.962;2022-12-29T10:15:18;100338.02;;;8.95;80.04
51067;BME280;37112;45.892;-123.962;2022-12-29T10:17:44;100333.19;;;8.90;80.10
51067;BME280;37112;45.892;-123.962;2022-12-29T10:20:20;100332.86;;;8.87;80.21
51067;BME280;37112;45.892;-123.962;2022-12-29T10:23:04;100330.02;;;8.85;80.42
51067;BME280;37112;45.892;-123.962;2022-12-29T10:25:26;100329.59;;;8.81;80.63
51067;BME280;37112;45.892;-123.962;2022-12-29T10:27:42;100331.14;;;8.76;80.80
51067;BME280;37112;45.892;-123.962;2022-12-29T10:29:57;100329.52;;;8.71;80.87
51067;BME280;37112;45.892;-123.962;2022-12-29T10:32:21;100326.76;;;8.67;81.04
51067;BME280;37112;45.892;-123.962;2022-12-29T10:34:41;100320.73;;;8.64;81.09
51067;BME280;37112;45.892;-123.962;2022-12-29T10:37:02;100321.70;;;8.60;81.24
51067;BME280;37112;45.892;-123.962;2022-12-29T10:39:20;100318.10;;;8.59;81.45
51067;BME280;37112;45.892;-123.962;2022-12-29T10:41:41;100315.37;;;8.57;81.52
51067;BME280;37112;45.892;-123.962;2022-12-29T10:44:00;100312.56;;;8.54;81.57
51067;BME280;37112;45.892;-123.962;2022-12-29T10:46:17;100310.95;;;8.52;81.71
51067;BME280;37112;45.892;-123.962;2022-12-29T10:48:33;100307.45;;;8.51;81.91
51067;BME280;37112;45.892;-123.962;2022-12-29T10:50:48;100304.05;;;8.52;82.22
51067;BME280;37112;45.892;-123.962;2022-12-29T10:53:15;100306.55;;;8.51;82.18
51067;BME280;37112;45.892;-123.962;2022-12-29T10:55:35;100303.11;;;8.50;82.14
51067;BME280;37112;45.892;-123.962;2022-12-29T10:57:50;100300.73;;;8.48;82.29
51067;BME280;37112;45.892;-123.962;2022-12-29T11:00:13;100302.92;;;8.47;82.47
51067;BME280;37112;45.892;-123.962;2022-12-29T11:02:56;100293.97;;;8.46;82.73
51067;BME280;37112;45.892;-123.962;2022-12-29T11:05:21;100293.58;;;8.44;82.68
51067;BME280;37112;45.892;-123.962;2022-12-29T11:07:36;100288.58;;;8.42;82.86
51067;BME280;37112;45.892;-123.962;2022-12-29T11:09:50;100288.89;;;8.40;82.89
51067;BME280;37112;45.892;-123.962;2022-12-29T11:12:22;100281.68;;;8.39;83.21
51067;BME280;37112;45.892;-123.962;2022-12-29T11:14:36;100274.06;;;8.37;83.35
51067;BME280;37112;45.892;-123.962;2022-12-29T11:16:59;100268.59;;;8.33;83.25
51067;BME280;37112;45.892;-123.962;2022-12-29T11:19:26;100258.95;;;8.29;83.31
51067;BME280;37112;45.892;-123.962;2022-12-29T11:21:49;100254.64;;;8.25;83.49
51067;BME280;37112;45.892;-123.962;2022-12-29T11:24:17;100250.23;;;8.22;83.70
51067;BME280;37112;45.892;-123.962;2022-12-29T11:26:31;100246.05;;;8.21;84.13
51067;BME280;37112;45.892;-123.962;2022-12-29T11:28:46;100241.84;;;8.21;84.47
51067;BME280;37112;45.892;-123.962;2022-12-29T11:31:02;100238.42;;;8.19;84.74
51067;BME280;37112;45.892;-123.962;2022-12-29T11:33:19;100233.67;;;8.19;84.96
51067;BME280;37112;45.892;-123.962;2022-12-29T11:35:36;100234.89;;;8.16;84.85
51067;BME280;37112;45.892;-123.962;2022-12-29T11:37:58;100234.73;;;8.16;85.26
51067;BME280;37112;45.892;-123.962;2022-12-29T11:40:19;100231.77;;;8.15;85.42
51067;BME280;37112;45.892;-123.962;2022-12-29T11:42:37;100242.23;;;8.15;85.67
51067;BME280;37112;45.892;-123.962;2022-12-29T11:44:53;100232.96;;;8.13;85.60
51067;BME280;37112;45.892;-123.962;2022-12-29T11:47:08;100229.11;;;8.09;85.49
51067;BME280;37112;45.892;-123.962;2022-12-29T11:49:25;100222.49;;;8.08;85.67
51067;BME280;37112;45.892;-123.962;2022-12-29T11:51:43;100218.19;;;8.06;85.89